sensor_id;sensor_type;location;lat;lon;timestamp;P1;durP1;ratioP1;P2;durP2;ratioP2
13311;SDS011;34033;48.672;9.376;2023-07-02T00:01:09;1.30;;;1.30;;
13311;SDS011;34033;48.672;9.376;2023-07-02T00:03:34;1.20;;;1.20;;
13311;SDS011;34033;48.672;9.376;2023-07-02T00:06:00;1.50;;;1.33;;
13311;SDS011;34033;48.672;9.376;2023-07-02T00:08:25;1.20;;;1.20;;
13311;SDS011;34033;48.672;9.376;2023-07-02T00:10:50;1.30;;;1.30;;
13311;SDS011;34033;48.672;9.376;2023-07-02T00:13:16;4.77;;;1.30;;
13311;SDS011;34033;48.672;9.376;2023-07-02T00:15:41;1.27;;;1.27;;
13311;SDS011;34033;48.672;9.376;2023-07-02T00:18:07;1.50;;;1.40;;
13311;SDS011;34033;48.672;9.376;2023-07-02T00:20:32;1.50;;;1.40;;
13311;SDS011;34033;48.672;9.376;2023-07-02T00:23:03;1.70;;;1.60;;
13311;SDS011;34033;48.672;9.376;2023-07-02T00:25:29;1.67;;;1.27;;
13311;SDS011;34033;48.672;9.376;2023-07-02T00:27:54;2.13;;;1.43;;
13311;SDS011;34033;48.672;9.376;2023-07-02T00:30:19;1.10;;;1.10;;
13311;SDS011;34033;48.672;9.376;2023-07-02T00:32:45;1.70;;;1.37;;
13311;SDS011;34033;48.672;9.376;2023-07-02T00:35:10;1.40;;;1.30;;
13311;SDS011;34033;48.672;9.376;2023-07-02T00:37:35;1.50;;;1.40;;
13311;SDS011;34033;48.672;9.376;2023-07-02T00:40:01;1.53;;;1.43;;
13311;SDS011;34033;48.672;9.376;2023-07-02T00:42:27;2.10;;;1.40;;
13311;SDS011;34033;48.672;9.376;2023-07-02T00:44:55;2.33;;;1.67;;
13311;SDS011;34033;48.672;9.376;2023-07-02T00:47:21;1.57;;;1.40;;
13311;SDS011;34033;48.672;9.376;2023-07-02T00:49:47;1.50;;;1.40;;
13311;SDS011;34033;48.672;9.376;2023-07-02T00:52:13;1.70;;;1.60;;
13311;SDS011;34033;48.672;9.376;2023-07-02T00:54:38;1.40;;;1.40;;
13311;SDS011;34033;48.672;9.376;2023-07-02T00:57:05;1.50;;;1.40;;
13311;SDS011;34033;48.672;9.376;2023-07-02T00:59:31;1.57;;;1.47;;
13311;SDS011;34033;48.672;9.376;2023-07-02T01:02:00;1.47;;;1.43;;
13311;SDS011;34033;48.672;9.376;2023-07-02T01:04:26;1.50;;;1.40;;
13311;SDS011;34033;48.672;9.376;2023-07-02T01:06:52;1.13;;;1.13;;
13311;SDS011;34033;48.672;9.376;2023-07-02T01:09:22;1.50;;;1.40;;
13311;SDS011;34033;48.672;9.376;2023-07-02T01:11:51;1.40;;;1.30;;
13311;SDS011;34033;48.672;9.376;2023-07-02T01:17:03;1.50;;;1.40;;
13311;SDS011;34033;48.672;9.376;2023-07-02T01:21:58;1.40;;;1.40;;
13311;SDS011;34033;48.672;9.376;2023-07-02T01:24:24;2.03;;;1.20;;
13311;SDS011;34033;48.672;9.376;2023-07-02T01:26:49;1.67;;;1.57;;
13311;SDS011;34033;48.672;9.376;2023-07-02T01:29:16;1.20;;;1.20;;
13311;SDS011;34033;48.672;9.376;2023-07-02T01:31:42;1.70;;;1.60;;
13311;SDS011;34033;48.672;9.376;2023-07-02T01:34:08;2.70;;;1.50;;
13311;SDS011;34033;48.672;9.376;2023-07-02T01:36:34;2.13;;;1.30;;
13311;SDS011;34033;48.672;9.376;2023-07-02T01:38:59;2.63;;;1.63;;
13311;SDS011;34033;48.672;9.376;2023-07-02T01:41:25;1.73;;;1.63;;
13311;SDS011;34033;48.672;9.376;2023-07-02T01:43:50;1.53;;;1.43;;
13311;SDS011;34033;48.672;9.376;2023-07-02T01:46:16;1.60;;;1.50;;
13311;SDS011;34033;48.672;9.376;2023-07-02T01:48:41;1.40;;;1.40;;
13311;SDS011;34033;48.672;9.376;2023-07-02T01:51:06;1.50;;;1.40;;
13311;SDS011;34033;48.672;9.376;2023-07-02T01:53:31;1.60;;;1.50;;
13311;SDS011;34033;48.672;9.376;2023-07-02T01:55:57;1.30;;;1.30;;
13311;SDS011;34033;48.672;9.376;2023-07-02T01:58:22;1.50;;;1.40;;
13311;SDS011;34033;48.672;9.376;2023-07-02T02:00:47;1.50;;;1.43;;
13311;SDS011;34033;48.672;9.376;2023-07-02T02:03:13;1.63;;;1.53;;
13311;SDS011;34033;48.672;9.376;2023-07-02T02:05:39;1.27;;;1.27;;
13311;SDS011;34033;48.672;9.376;2023-07-02T02:08:04;1.30;;;1.30;;
13311;SDS011;34033;48.672;9.376;2023-07-02T02:10:29;1.40;;;1.40;;
13311;SDS011;34033;48.672;9.376;2023-07-02T02:12:55;1.60;;;1.50;;
13311;SDS011;34033;48.672;9.376;2023-07-02T02:15:20;1.20;;;1.20;;
13311;SDS011;34033;48.672;9.376;2023-07-02T02:17:45;1.27;;;1.20;;
13311;SDS011;34033;48.672;9.376;2023-07-02T02:20:11;1.13;;;1.13;;
13311;SDS011;34033;48.672;9.376;2023-07-02T02:22:36;1.87;;;1.60;;
13311;SDS011;34033;48.672;9.376;2023-07-02T02:25:02;1.50;;;1.40;;
13311;SDS011;34033;48.672;9.376;2023-07-02T02:27:30;1.40;;;1.30;;
13311;SDS011;34033;48.672;9.376;2023-07-02T02:29:55;1.50;;;1.40;;
13311;SDS011;34033;48.672;9.376;2023-07-02T02:32:20;1.50;;;1.40;;
13311;SDS011;34033;48.672;9.376;2023-07-02T02:34:47;2.57;;;1.53;;
13311;SDS011;34033;48.672;9.376;2023-07-02T02:37:12;2.37;;;1.20;;
13311;SDS011;34033;48.672;9.376;2023-07-02T02:39:37;1.20;;;1.20;;
13311;SDS011;34033;48.672;9.376;2023-07-02T02:42:03;1.70;;;1.60;;
13311;SDS011;34033;48.672;9.376;2023-07-02T02:44:29;1.60;;;1.50;;
13311;SDS011;34033;48.672;9.376;2023-07-02T02:46:54;1.47;;;1.37;;
13311;SDS011;34033;48.672;9.376;2023-07-02T02:49:20;1.40;;;1.30;;
13311;SDS011;34033;48.672;9.376;2023-07-02T02:51:45;1.37;;;1.37;;
13311;SDS011;34033;48.672;9.376;2023-07-02T02:54:10;1.53;;;1.43;;
13311;SDS011;34033;48.672;9.376;2023-07-02T02:56:36;1.43;;;1.40;;
13311;SDS011;34033;48.672;9.376;2023-07-02T02:59:01;4.80;;;1.57;;
13311;SDS011;34033;48.672;9.376;2023-07-02T03:01:27;1.47;;;1.30;;
13311;SDS011;34033;48.672;9.376;2023-07-02T03:03:55;1.50;;;1.40;;
13311;SDS011;34033;48.672;9.376;2023-07-02T03:06:22;3.53;;;1.33;;
13311;SDS011;34033;48.672;9.376;2023-07-02T03:08:48;1.43;;;1.30;;
13311;SDS011;34033;48.672;9.376;2023-07-02T03:11:13;2.67;;;1.40;;
13311;SDS011;34033;48.672;9.376;2023-07-02T03:13:38;1.30;;;1.30;;
13311;SDS011;34033;48.672;9.376;2023-07-02T03:16:04;1.20;;;1.20;;
13311;SDS011;34033;48.672;9.376;2023-07-02T03:18:29;1.63;;;1.43;;
13311;SDS011;34033;48.672;9.376;2023-07-02T03:20:55;1.60;;;1.50;;
13311;SDS011;34033;48.672;9.376;2023-07-02T03:23:20;1.30;;;1.30;;
13311;SDS011;34033;48.672;9.376;2023-07-02T03:25:45;4.67;;;1.20;;
13311;SDS011;34033;48.672;9.376;2023-07-02T03:28:11;1.60;;;1.50;;
13311;SDS011;34033;48.672;9.376;2023-07-02T03:30:36;1.50;;;1.40;;
13311;SDS011;34033;48.672;9.376;2023-07-02T03:33:01;1.40;;;1.30;;
13311;SDS011;34033;48.672;9.376;2023-07-02T03:35:27;2.33;;;1.70;;
13311;SDS011;34033;48.672;9.376;2023-07-02T03:37:52;1.30;;;1.30;;
13311;SDS011;34033;48.672;9.376;2023-07-02T03:40:17;1.77;;;1.33;;
13311;SDS011;34033;48.672;9.376;2023-07-02T03:42:43;1.30;;;1.30;;
13311;SDS011;34033;48.672;9.376;2023-07-02T03:45:08;1.77;;;1.53;;
13311;SDS011;34033;48.672;9.376;2023-07-02T03:47:34;1.43;;;1.33;;
13311;SDS011;34033;48.672;9.376;2023-07-02T03:49:59;1.67;;;1.43;;
13311;SDS011;34033;48.672;9.376;2023-07-02T03:52:24;3.37;;;1.60;;
13311;SDS011;34033;48.672;9.376;2023-07-02T03:54:50;1.80;;;1.40;;
13311;SDS011;34033;48.672;9.376;2023-07-02T03:57:15;1.73;;;1.63;;
13311;SDS011;34033;48.672;9.376;2023-07-02T03:59:40;1.60;;;1.50;;
13311;SDS011;34033;48.672;9.376;2023-07-02T04:02:06;2.00;;;1.30;;
13311;SDS011;34033;48.672;9.376;2023-07-02T04:04:31;2.77;;;1.47;;
13311;SDS011;34033;48.672;9.376;2023-07-02T04:06:56;1.70;;;1.60;;
13311;SDS011;34033;48.672;9.376;2023-07-02T04:09:22;1.50;;;1.40;;
13311;SDS011;34033;48.672;9.376;2023-07-02T04:11:47;1.60;;;1.50;;
13311;SDS011;34033;48.672;9.376;2023-07-02T04:14:12;1.50;;;1.40;;
13311;SDS011;34033;48.672;9.376;2023-07-02T04:16:38;1.60;;;1.50;;
13311;SDS011;34033;48.672;9.376;2023-07-02T04:19:03;1.47;;;1.37;;
13311;SDS011;34033;48.672;9.376;2023-07-02T04:21:28;1.67;;;1.57;;
13311;SDS011;34033;48.672;9.376;2023-07-02T04:23:54;2.53;;;1.63;;
13311;SDS011;34033;48.672;9.376;2023-07-02T04:26:19;1.57;;;1.47;;
13311;SDS011;34033;48.672;9.376;2023-07-02T04:28:44;1.50;;;1.43;;
13311;SDS011;34033;48.672;9.376;2023-07-02T04:31:10;1.77;;;1.50;;
13311;SDS011;34033;48.672;9.376;2023-07-02T04:33:35;5.63;;;1.60;;
13311;SDS011;34033;48.672;9.376;2023-07-02T04:36:04;4.20;;;1.43;;
13311;SDS011;34033;48.672;9.376;2023-07-02T04:38:29;1.50;;;1.40;;
13311;SDS011;34033;48.672;9.376;2023-07-02T04:40:55;2.20;;;1.70;;
13311;SDS011;34033;48.672;9.376;2023-07-02T04:43:26;4.30;;;1.93;;
13311;SDS011;34033;48.672;9.376;2023-07-02T04:45:54;1.40;;;1.30;;
13311;SDS011;34033;48.672;9.376;2023-07-02T04:48:20;2.27;;;1.60;;
13311;SDS011;34033;48.672;9.376;2023-07-02T04:50:45;1.50;;;1.40;;
13311;SDS011;34033;48.672;9.376;2023-07-02T04:53:10;1.70;;;1.60;;
13311;SDS011;34033;48.672;9.376;2023-07-02T04:55:36;1.53;;;1.43;;
13311;SDS011;34033;48.672;9.376;2023-07-02T04:58:01;2.10;;;1.47;;
13311;SDS011;34033;48.672;9.376;2023-07-02T05:00:26;1.77;;;1.53;;
13311;SDS011;34033;48.672;9.376;2023-07-02T05:02:51;2.53;;;1.43;;
13311;SDS011;34033;48.672;9.376;2023-07-02T05:05:17;2.00;;;1.40;;
13311;SDS011;34033;48.672;9.376;2023-07-02T05:07:43;1.83;;;1.73;;
13311;SDS011;34033;48.672;9.376;2023-07-02T05:10:08;4.03;;;1.60;;
13311;SDS011;34033;48.672;9.376;2023-07-02T05:12:34;1.60;;;1.50;;
13311;SDS011;34033;48.672;9.376;2023-07-02T05:14:59;1.60;;;1.50;;
13311;SDS011;34033;48.672;9.376;2023-07-02T05:17:24;1.60;;;1.50;;
13311;SDS011;34033;48.672;9.376;2023-07-02T05:19:50;1.50;;;1.40;;
13311;SDS011;34033;48.672;9.376;2023-07-02T05:22:15;1.40;;;1.37;;
13311;SDS011;34033;48.672;9.376;2023-07-02T05:24:40;1.60;;;1.50;;
13311;SDS011;34033;48.672;9.376;2023-07-02T05:27:06;2.20;;;1.33;;
13311;SDS011;34033;48.672;9.376;2023-07-02T05:29:31;1.83;;;1.57;;
13311;SDS011;34033;48.672;9.376;2023-07-02T05:31:56;3.23;;;1.40;;
13311;SDS011;34033;48.672;9.376;2023-07-02T05:34:22;1.50;;;1.40;;
13311;SDS011;34033;48.672;9.376;2023-07-02T05:36:47;2.33;;;1.43;;
13311;SDS011;34033;48.672;9.376;2023-07-02T05:39:12;1.50;;;1.40;;
13311;SDS011;34033;48.672;9.376;2023-07-02T05:41:38;1.50;;;1.40;;
13311;SDS011;34033;48.672;9.376;2023-07-02T05:44:03;1.37;;;1.23;;
13311;SDS011;34033;48.672;9.376;2023-07-02T05:46:29;1.50;;;1.40;;
13311;SDS011;34033;48.672;9.376;2023-07-02T05:48:54;1.67;;;1.57;;
13311;SDS011;34033;48.672;9.376;2023-07-02T05:51:22;2.40;;;1.47;;
13311;SDS011;34033;48.672;9.376;2023-07-02T05:53:49;1.27;;;1.23;;
13311;SDS011;34033;48.672;9.376;2023-07-02T05:56:15;1.50;;;1.30;;
13311;SDS011;34033;48.672;9.376;2023-07-02T05:58:41;2.63;;;1.27;;
13311;SDS011;34033;48.672;9.376;2023-07-02T06:01:06;2.07;;;1.73;;
13311;SDS011;34033;48.672;9.376;2023-07-02T06:03:32;1.37;;;1.30;;
13311;SDS011;34033;48.672;9.376;2023-07-02T06:05:57;1.60;;;1.50;;
13311;SDS011;34033;48.672;9.376;2023-07-02T06:08:23;1.70;;;1.20;;
13311;SDS011;34033;48.672;9.376;2023-07-02T06:10:48;1.40;;;1.30;;
13311;SDS011;34033;48.672;9.376;2023-07-02T06:13:14;4.83;;;1.70;;
13311;SDS011;34033;48.672;9.376;2023-07-02T06:15:40;2.33;;;1.57;;
13311;SDS011;34033;48.672;9.376;2023-07-02T06:18:05;1.43;;;1.33;;
13311;SDS011;34033;48.672;9.376;2023-07-02T06:20:31;1.73;;;1.50;;
13311;SDS011;34033;48.672;9.376;2023-07-02T06:22:56;1.53;;;1.43;;
13311;SDS011;34033;48.672;9.376;2023-07-02T06:25:22;1.50;;;1.40;;
13311;SDS011;34033;48.672;9.376;2023-07-02T06:27:47;2.87;;;1.50;;
13311;SDS011;34033;48.672;9.376;2023-07-02T06:30:13;1.87;;;1.50;;
13311;SDS011;34033;48.672;9.376;2023-07-02T06:32:38;1.70;;;1.60;;
13311;SDS011;34033;48.672;9.376;2023-07-02T06:35:04;2.07;;;1.80;;
13311;SDS011;34033;48.672;9.376;2023-07-02T06:37:31;2.27;;;1.57;;
13311;SDS011;34033;48.672;9.376;2023-07-02T06:39:56;1.70;;;1.60;;
13311;SDS011;34033;48.672;9.376;2023-07-02T06:42:22;5.60;;;3.03;;
13311;SDS011;34033;48.672;9.376;2023-07-02T06:44:48;3.40;;;3.10;;
13311;SDS011;34033;48.672;9.376;2023-07-02T06:47:13;3.80;;;3.10;;
13311;SDS011;34033;48.672;9.376;2023-07-02T06:49:39;4.10;;;2.90;;
13311;SDS011;34033;48.672;9.376;2023-07-02T06:52:04;4.30;;;3.40;;
13311;SDS011;34033;48.672;9.376;2023-07-02T06:54:29;7.87;;;3.67;;
13311;SDS011;34033;48.672;9.376;2023-07-02T06:56:55;4.97;;;3.57;;
13311;SDS011;34033;48.672;9.376;2023-07-02T06:59:23;5.03;;;3.33;;
13311;SDS011;34033;48.672;9.376;2023-07-02T07:01:49;6.70;;;3.83;;
13311;SDS011;34033;48.672;9.376;2023-07-02T07:04:15;5.90;;;3.73;;
13311;SDS011;34033;48.672;9.376;2023-07-02T07:06:40;5.90;;;4.13;;
13311;SDS011;34033;48.672;9.376;2023-07-02T07:09:07;6.63;;;4.17;;
13311;SDS011;34033;48.672;9.376;2023-07-02T07:11:32;4.20;;;3.80;;
13311;SDS011;34033;48.672;9.376;2023-07-02T07:13:58;7.43;;;3.43;;
13311;SDS011;34033;48.672;9.376;2023-07-02T07:16:23;6.80;;;4.10;;
13311;SDS011;34033;48.672;9.376;2023-07-02T07:18:48;6.47;;;4.40;;
13311;SDS011;34033;48.672;9.376;2023-07-02T07:21:14;7.60;;;4.80;;
13311;SDS011;34033;48.672;9.376;2023-07-02T07:23:39;8.73;;;4.17;;
13311;SDS011;34033;48.672;9.376;2023-07-02T07:26:05;6.37;;;3.70;;
13311;SDS011;34033;48.672;9.376;2023-07-02T07:28:31;6.83;;;4.40;;
13311;SDS011;34033;48.672;9.376;2023-07-02T07:30:56;8.20;;;4.20;;
13311;SDS011;34033;48.672;9.376;2023-07-02T07:33:21;5.97;;;4.40;;
13311;SDS011;34033;48.672;9.376;2023-07-02T07:35:47;13.83;;;6.50;;
13311;SDS011;34033;48.672;9.376;2023-07-02T07:38:13;35.73;;;20.20;;
13311;SDS011;34033;48.672;9.376;2023-07-02T07:40:39;37.87;;;21.07;;
13311;SDS011;34033;48.672;9.376;2023-07-02T07:43:05;24.50;;;13.97;;
13311;SDS011;34033;48.672;9.376;2023-07-02T07:45:30;16.70;;;11.60;;
13311;SDS011;34033;48.672;9.376;2023-07-02T07:47:55;9.63;;;6.30;;
13311;SDS011;34033;48.672;9.376;2023-07-02T07:50:21;5.10;;;3.90;;
13311;SDS011;34033;48.672;9.376;2023-07-02T07:52:47;8.30;;;5.00;;
13311;SDS011;34033;48.672;9.376;2023-07-02T07:55:13;6.23;;;4.70;;
13311;SDS011;34033;48.672;9.376;2023-07-02T07:57:38;9.30;;;5.10;;
13311;SDS011;34033;48.672;9.376;2023-07-02T08:00:04;6.67;;;4.73;;
13311;SDS011;34033;48.672;9.376;2023-07-02T08:02:33;11.40;;;4.83;;
13311;SDS011;34033;48.672;9.376;2023-07-02T08:04:58;6.93;;;4.87;;
13311;SDS011;34033;48.672;9.376;2023-07-02T08:07:23;7.83;;;4.40;;
13311;SDS011;34033;48.672;9.376;2023-07-02T08:09:49;9.20;;;5.20;;
13311;SDS011;34033;48.672;9.376;2023-07-02T08:12:14;9.07;;;5.63;;
13311;SDS011;34033;48.672;9.376;2023-07-02T08:14:39;7.63;;;4.80;;
13311;SDS011;34033;48.672;9.376;2023-07-02T08:17:05;7.47;;;4.73;;
13311;SDS011;34033;48.672;9.376;2023-07-02T08:19:31;10.13;;;5.43;;
13311;SDS011;34033;48.672;9.376;2023-07-02T08:21:56;9.30;;;5.73;;
13311;SDS011;34033;48.672;9.376;2023-07-02T08:24:21;9.93;;;5.60;;
13311;SDS011;34033;48.672;9.376;2023-07-02T08:26:47;7.43;;;5.40;;
13311;SDS011;34033;48.672;9.376;2023-07-02T08:29:14;10.23;;;5.53;;
13311;SDS011;34033;48.672;9.376;2023-07-02T08:31:40;7.43;;;5.03;;
13311;SDS011;34033;48.672;9.376;2023-07-02T08:34:05;8.17;;;5.23;;
13311;SDS011;34033;48.672;9.376;2023-07-02T08:36:31;6.93;;;5.33;;
13311;SDS011;34033;48.672;9.376;2023-07-02T08:38:56;7.27;;;5.33;;
13311;SDS011;34033;48.672;9.376;2023-07-02T08:41:21;12.07;;;5.37;;
13311;SDS011;34033;48.672;9.376;2023-07-02T08:43:48;10.53;;;5.70;;
13311;SDS011;34033;48.672;9.376;2023-07-02T08:46:17;8.83;;;5.63;;
13311;SDS011;34033;48.672;9.376;2023-07-02T08:48:42;12.37;;;5.70;;
13311;SDS011;34033;48.672;9.376;2023-07-02T08:51:08;13.57;;;6.40;;
13311;SDS011;34033;48.672;9.376;2023-07-02T08:53:34;10.47;;;5.97;;
13311;SDS011;34033;48.672;9.376;2023-07-02T08:56:00;8.47;;;5.87;;
13311;SDS011;34033;48.672;9.376;2023-07-02T08:58:26;11.47;;;5.83;;
13311;SDS011;34033;48.672;9.376;2023-07-02T09:01:07;9.57;;;6.33;;
13311;SDS011;34033;48.672;9.376;2023-07-02T09:03:37;12.60;;;5.53;;
13311;SDS011;34033;48.672;9.376;2023-07-02T09:06:03;11.23;;;5.90;;
13311;SDS011;34033;48.672;9.376;2023-07-02T09:08:30;16.43;;;6.17;;
13311;SDS011;34033;48.672;9.376;2023-07-02T09:13:43;9.20;;;5.77;;
13311;SDS011;34033;48.672;9.376;2023-07-02T09:16:20;10.37;;;6.17;;
13311;SDS011;34033;48.672;9.376;2023-07-02T09:18:54;8.90;;;5.93;;
13311;SDS011;34033;48.672;9.376;2023-07-02T09:21:21;9.93;;;6.30;;
13311;SDS011;34033;48.672;9.376;2023-07-02T09:23:47;9.10;;;6.33;;
13311;SDS011;34033;48.672;9.376;2023-07-02T09:26:19;8.97;;;6.00;;
13311;SDS011;34033;48.672;9.376;2023-07-02T09:28:45;10.77;;;6.00;;
13311;SDS011;34033;48.672;9.376;2023-07-02T09:31:10;8.27;;;5.83;;
13311;SDS011;34033;48.672;9.376;2023-07-02T09:33:36;9.57;;;6.17;;
13311;SDS011;34033;48.672;9.376;2023-07-02T09:36:02;10.57;;;5.87;;
13311;SDS011;34033;48.672;9.376;2023-07-02T09:38:27;7.47;;;5.23;;
13311;SDS011;34033;48.672;9.376;2023-07-02T09:40:53;8.43;;;5.03;;
13311;SDS011;34033;48.672;9.376;2023-07-02T09:43:19;8.83;;;5.80;;
13311;SDS011;34033;48.672;9.376;2023-07-02T09:45:45;9.07;;;5.73;;
13311;SDS011;34033;48.672;9.376;2023-07-02T09:48:13;7.87;;;5.17;;
13311;SDS011;34033;48.672;9.376;2023-07-02T09:50:41;10.20;;;5.60;;
13311;SDS011;34033;48.672;9.376;2023-07-02T09:53:08;8.87;;;5.50;;
13311;SDS011;34033;48.672;9.376;2023-07-02T09:55:34;8.17;;;5.30;;
13311;SDS011;34033;48.672;9.376;2023-07-02T09:57:59;9.40;;;5.87;;
13311;SDS011;34033;48.672;9.376;2023-07-02T10:00:25;10.40;;;5.50;;
13311;SDS011;34033;48.672;9.376;2023-07-02T10:02:50;7.70;;;5.33;;
13311;SDS011;34033;48.672;9.376;2023-07-02T10:05:31;9.07;;;5.63;;
13311;SDS011;34033;48.672;9.376;2023-07-02T10:07:58;10.47;;;5.77;;
13311;SDS011;34033;48.672;9.376;2023-07-02T10:10:40;8.83;;;5.97;;
13311;SDS011;34033;48.672;9.376;2023-07-02T10:13:05;8.23;;;5.50;;
13311;SDS011;34033;48.672;9.376;2023-07-02T10:15:31;10.13;;;6.20;;
13311;SDS011;34033;48.672;9.376;2023-07-02T10:17:57;9.97;;;6.77;;
13311;SDS011;34033;48.672;9.376;2023-07-02T10:23:05;14.57;;;7.57;;
13311;SDS011;34033;48.672;9.376;2023-07-02T10:25:36;11.67;;;7.87;;
13311;SDS011;34033;48.672;9.376;2023-07-02T10:30:41;13.60;;;8.93;;
13311;SDS011;34033;48.672;9.376;2023-07-02T10:33:07;15.03;;;9.30;;
13311;SDS011;34033;48.672;9.376;2023-07-02T10:35:34;15.57;;;9.77;;
13311;SDS011;34033;48.672;9.376;2023-07-02T10:37:59;17.07;;;9.37;;
13311;SDS011;34033;48.672;9.376;2023-07-02T10:40:25;17.67;;;9.10;;
13311;SDS011;34033;48.672;9.376;2023-07-02T10:42:51;15.50;;;9.13;;
13311;SDS011;34033;48.672;9.376;2023-07-02T10:45:18;12.10;;;7.30;;
13311;SDS011;34033;48.672;9.376;2023-07-02T10:47:45;14.73;;;8.50;;
13311;SDS011;34033;48.672;9.376;2023-07-02T10:50:17;10.40;;;7.30;;
13311;SDS011;34033;48.672;9.376;2023-07-02T10:52:48;12.23;;;7.43;;
13311;SDS011;34033;48.672;9.376;2023-07-02T10:55:17;11.00;;;7.03;;
13311;SDS011;34033;48.672;9.376;2023-07-02T10:57:47;13.53;;;7.80;;
13311;SDS011;34033;48.672;9.376;2023-07-02T11:00:13;12.30;;;8.57;;
13311;SDS011;34033;48.672;9.376;2023-07-02T11:02:39;12.03;;;8.33;;
13311;SDS011;34033;48.672;9.376;2023-07-02T11:05:05;12.63;;;8.27;;
13311;SDS011;34033;48.672;9.376;2023-07-02T11:07:36;12.40;;;7.67;;
13311;SDS011;34033;48.672;9.376;2023-07-02T11:10:02;12.13;;;7.40;;
13311;SDS011;34033;48.672;9.376;2023-07-02T11:12:29;14.07;;;7.57;;
13311;SDS011;34033;48.672;9.376;2023-07-02T11:14:59;10.60;;;7.43;;
13311;SDS011;34033;48.672;9.376;2023-07-02T11:17:32;11.83;;;7.50;;
13311;SDS011;34033;48.672;9.376;2023-07-02T11:19:57;12.90;;;7.53;;
13311;SDS011;34033;48.672;9.376;2023-07-02T11:22:30;11.13;;;6.57;;
13311;SDS011;34033;48.672;9.376;2023-07-02T11:24:57;10.43;;;7.10;;
13311;SDS011;34033;48.672;9.376;2023-07-02T11:27:33;12.37;;;8.30;;
13311;SDS011;34033;48.672;9.376;2023-07-02T11:29:59;11.07;;;7.60;;
13311;SDS011;34033;48.672;9.376;2023-07-02T11:32:24;10.97;;;7.10;;
13311;SDS011;34033;48.672;9.376;2023-07-02T11:34:53;10.80;;;7.30;;
13311;SDS011;34033;48.672;9.376;2023-07-02T11:37:19;9.73;;;7.17;;
13311;SDS011;34033;48.672;9.376;2023-07-02T11:39:44;9.70;;;7.07;;
13311;SDS011;34033;48.672;9.376;2023-07-02T11:42:10;11.17;;;7.53;;
13311;SDS011;34033;48.672;9.376;2023-07-02T11:44:35;11.67;;;7.37;;
13311;SDS011;34033;48.672;9.376;2023-07-02T11:47:01;9.17;;;6.87;;
13311;SDS011;34033;48.672;9.376;2023-07-02T11:49:26;9.37;;;6.77;;
13311;SDS011;34033;48.672;9.376;2023-07-02T11:51:51;8.97;;;6.20;;
13311;SDS011;34033;48.672;9.376;2023-07-02T11:54:16;10.83;;;6.60;;
13311;SDS011;34033;48.672;9.376;2023-07-02T11:56:43;8.20;;;6.47;;
13311;SDS011;34033;48.672;9.376;2023-07-02T11:59:09;9.90;;;6.63;;
13311;SDS011;34033;48.672;9.376;2023-07-02T12:01:35;10.63;;;6.67;;
13311;SDS011;34033;48.672;9.376;2023-07-02T12:04:00;8.20;;;6.17;;
13311;SDS011;34033;48.672;9.376;2023-07-02T12:06:26;11.47;;;6.87;;
13311;SDS011;34033;48.672;9.376;2023-07-02T12:08:51;10.73;;;6.37;;
13311;SDS011;34033;48.672;9.376;2023-07-02T12:11:16;10.70;;;6.93;;
13311;SDS011;34033;48.672;9.376;2023-07-02T12:13:42;10.27;;;6.50;;
13311;SDS011;34033;48.672;9.376;2023-07-02T12:16:07;8.73;;;6.50;;
13311;SDS011;34033;48.672;9.376;2023-07-02T12:18:32;11.73;;;6.13;;
13311;SDS011;34033;48.672;9.376;2023-07-02T12:20:58;10.00;;;6.60;;
13311;SDS011;34033;48.672;9.376;2023-07-02T12:23:23;12.40;;;6.70;;
13311;SDS011;34033;48.672;9.376;2023-07-02T12:25:49;8.37;;;6.40;;
13311;SDS011;34033;48.672;9.376;2023-07-02T12:28:14;8.93;;;6.60;;
13311;SDS011;34033;48.672;9.376;2023-07-02T12:30:39;8.30;;;6.47;;
13311;SDS011;34033;48.672;9.376;2023-07-02T12:33:05;7.70;;;6.13;;
13311;SDS011;34033;48.672;9.376;2023-07-02T12:35:30;8.10;;;6.30;;
13311;SDS011;34033;48.672;9.376;2023-07-02T12:37:56;9.37;;;6.23;;
13311;SDS011;34033;48.672;9.376;2023-07-02T12:40:21;11.67;;;7.03;;
13311;SDS011;34033;48.672;9.376;2023-07-02T12:42:47;10.10;;;6.53;;
13311;SDS011;34033;48.672;9.376;2023-07-02T12:45:13;13.80;;;7.00;;
13311;SDS011;34033;48.672;9.376;2023-07-02T12:47:40;9.13;;;6.67;;
13311;SDS011;34033;48.672;9.376;2023-07-02T12:50:06;9.10;;;6.13;;
13311;SDS011;34033;48.672;9.376;2023-07-02T12:52:32;9.20;;;6.23;;
13311;SDS011;34033;48.672;9.376;2023-07-02T12:54:58;9.77;;;6.97;;
13311;SDS011;34033;48.672;9.376;2023-07-02T12:57:24;11.37;;;6.90;;
13311;SDS011;34033;48.672;9.376;2023-07-02T12:59:51;10.67;;;5.83;;
13311;SDS011;34033;48.672;9.376;2023-07-02T13:02:20;9.27;;;6.60;;
13311;SDS011;34033;48.672;9.376;2023-07-02T13:04:46;9.80;;;6.83;;
13311;SDS011;34033;48.672;9.376;2023-07-02T13:07:11;9.07;;;6.10;;
13311;SDS011;34033;48.672;9.376;2023-07-02T13:09:37;7.93;;;5.97;;
13311;SDS011;34033;48.672;9.376;2023-07-02T13:12:02;7.93;;;6.07;;
13311;SDS011;34033;48.672;9.376;2023-07-02T13:14:28;10.53;;;6.30;;
13311;SDS011;34033;48.672;9.376;2023-07-02T13:16:53;9.50;;;6.37;;
13311;SDS011;34033;48.672;9.376;2023-07-02T13:19:19;8.70;;;5.53;;
13311;SDS011;34033;48.672;9.376;2023-07-02T13:21:44;7.47;;;5.80;;
13311;SDS011;34033;48.672;9.376;2023-07-02T13:24:10;11.37;;;6.23;;
13311;SDS011;34033;48.672;9.376;2023-07-02T13:26:37;7.30;;;5.97;;
13311;SDS011;34033;48.672;9.376;2023-07-02T13:29:02;8.90;;;6.17;;
13311;SDS011;34033;48.672;9.376;2023-07-02T13:31:27;8.13;;;5.80;;
13311;SDS011;34033;48.672;9.376;2023-07-02T13:33:53;8.97;;;5.93;;
13311;SDS011;34033;48.672;9.376;2023-07-02T13:36:18;8.40;;;6.50;;
13311;SDS011;34033;48.672;9.376;2023-07-02T13:38:43;9.60;;;6.17;;
13311;SDS011;34033;48.672;9.376;2023-07-02T13:41:08;9.50;;;6.30;;
13311;SDS011;34033;48.672;9.376;2023-07-02T13:43:34;12.87;;;6.07;;
13311;SDS011;34033;48.672;9.376;2023-07-02T13:45:59;9.53;;;6.30;;
13311;SDS011;34033;48.672;9.376;2023-07-02T13:48:25;10.03;;;6.43;;
13311;SDS011;34033;48.672;9.376;2023-07-02T13:50:50;8.23;;;6.03;;
13311;SDS011;34033;48.672;9.376;2023-07-02T13:53:15;9.47;;;6.30;;
13311;SDS011;34033;48.672;9.376;2023-07-02T13:55:41;9.87;;;6.03;;
13311;SDS011;34033;48.672;9.376;2023-07-02T13:58:06;8.30;;;5.83;;
13311;SDS011;34033;48.672;9.376;2023-07-02T14:00:32;8.70;;;6.10;;
13311;SDS011;34033;48.672;9.376;2023-07-02T14:02:57;8.40;;;6.00;;
13311;SDS011;34033;48.672;9.376;2023-07-02T14:05:23;10.13;;;5.80;;
13311;SDS011;34033;48.672;9.376;2023-07-02T14:07:48;9.17;;;6.13;;
13311;SDS011;34033;48.672;9.376;2023-07-02T14:10:14;10.67;;;6.30;;
13311;SDS011;34033;48.672;9.376;2023-07-02T14:12:41;9.57;;;6.63;;
13311;SDS011;34033;48.672;9.376;2023-07-02T14:15:07;10.00;;;6.70;;
13311;SDS011;34033;48.672;9.376;2023-07-02T14:17:33;10.80;;;6.73;;
13311;SDS011;34033;48.672;9.376;2023-07-02T14:19:59;10.30;;;6.47;;
13311;SDS011;34033;48.672;9.376;2023-07-02T14:22:25;7.33;;;5.77;;
13311;SDS011;34033;48.672;9.376;2023-07-02T14:24:50;8.83;;;6.30;;
13311;SDS011;34033;48.672;9.376;2023-07-02T14:27:15;8.57;;;6.27;;
13311;SDS011;34033;48.672;9.376;2023-07-02T14:29:41;8.60;;;6.32;;
13311;SDS011;34033;48.672;9.376;2023-07-02T14:32:06;8.38;;;6.03;;
13311;SDS011;34033;48.672;9.376;2023-07-02T14:34:32;9.52;;;6.30;;
13311;SDS011;34033;48.672;9.376;2023-07-02T14:36:58;10.03;;;6.53;;
13311;SDS011;34033;48.672;9.376;2023-07-02T14:39:23;8.95;;;6.50;;
13311;SDS011;34033;48.672;9.376;2023-07-02T14:41:49;10.07;;;6.57;;
13311;SDS011;34033;48.672;9.376;2023-07-02T14:44:15;12.10;;;6.57;;
13311;SDS011;34033;48.672;9.376;2023-07-02T14:46:40;9.13;;;7.10;;
13311;SDS011;34033;48.672;9.376;2023-07-02T14:49:07;11.23;;;7.13;;
13311;SDS011;34033;48.672;9.376;2023-07-02T14:51:33;10.15;;;6.18;;